Time;durP1;ratioP1;P1;durP2;ratioP2;P2;SDS_P1;SDS_P2;PMS_P1;PMS_P2;Temp;Humidity;BMP_temperature;BMP_pressure;BME280_temperature;BME280_humidity;BME280_pressure;Samples;Min_cycle;Max_cycle;Signal;HPM_P1;HPM_P2
2023/07/15 00:01:36;;;;;;;0.40;0.40;;;25.80;60.80;;;26.47;43.84;94777.00;5077405;28;20194;-46
2023/07/15 00:04:11;;;;;;;0.30;0.30;;;25.90;60.90;;;26.45;43.98;94774.63;5077358;28;20485;-45
2023/07/15 00:06:38;;;;;;;0.30;0.30;;;25.80;60.80;;;26.43;43.83;94770.63;5093459;28;20177;-45
2023/07/15 00:09:05;;;;;;;0.30;0.30;;;25.80;60.90;;;26.42;44.29;94774.41;5093302;28;20213;-46
2023/07/15 00:11:42;;;;;;;0.50;0.50;;;25.80;60.90;;;26.39;43.99;94773.13;5077527;28;20234;-48
2023/07/15 00:14:19;;;;;;;0.30;0.30;;;25.70;60.90;;;26.38;44.19;94782.28;5077198;28;20277;-45
2023/07/15 00:16:46;;;;;;;0.30;0.30;;;25.70;61.00;;;26.35;44.28;94774.78;5093410;28;20190;-48
2023/07/15 00:19:13;;;;;;;0.30;0.30;;;25.70;61.00;;;26.34;44.07;94781.25;5077219;28;20254;-48
2023/07/15 00:21:40;;;;;;;0.30;0.30;;;25.70;61.10;;;26.32;44.23;94780.78;5077096;28;20215;-47
2023/07/15 00:24:07;;;;;;;0.30;0.30;;;25.70;61.20;;;26.31;44.50;94779.97;5077016;28;20194;-45
2023/07/15 00:26:35;;;;;;;0.40;0.40;;;25.60;62.00;;;26.27;44.39;94781.66;5077343;28;20259;-46
2023/07/15 00:29:04;;;;;;;0.35;0.35;;;25.60;61.10;;;26.24;44.14;94771.47;5077033;28;20226;-46
2023/07/15 00:31:36;;;;;;;0.40;0.40;;;25.60;61.30;;;26.24;44.63;94776.84;5076287;28;20193;-45
2023/07/15 00:34:04;;;;;;;0.40;0.40;;;25.60;61.40;;;26.23;44.83;94777.94;5092489;28;20207;-46
2023/07/15 00:36:33;;;;;;;0.50;0.50;;;25.60;61.40;;;26.22;44.92;94779.06;5076728;28;20222;-48
2023/07/15 00:39:01;;;;;;;0.30;0.30;;;25.60;61.40;;;26.20;44.76;94779.31;5076980;28;20590;-45
2023/07/15 00:41:34;;;;;;;0.35;0.35;;;25.60;61.30;;;26.18;44.65;94780.72;5076955;28;20260;-45
2023/07/15 00:44:06;;;;;;;0.30;0.30;;;25.50;61.40;;;26.16;44.88;94785.59;5076512;28;20240;-49
2023/07/15 00:46:36;;;;;;;0.38;0.38;;;25.50;61.50;;;26.15;44.81;94782.09;5076644;28;20173;-47
2023/07/15 00:49:24;;;;;;;0.30;0.30;;;25.50;61.70;;;26.12;45.00;94771.97;5076505;28;20191;-46
2023/07/15 00:52:04;;;;;;;0.30;0.30;;;25.50;62.00;;;26.11;45.34;94780.28;5076812;28;20269;-46
2023/07/15 00:54:37;;;;;;;0.30;0.30;;;25.50;62.00;;;26.08;45.05;94778.22;5076230;28;20274;-46
2023/07/15 00:57:15;;;;;;;0.38;0.38;;;25.50;61.90;;;26.06;45.26;94775.75;5092333;28;20524;-46
2023/07/15 00:59:44;;;;;;;0.50;0.50;;;25.40;61.80;;;26.04;45.44;94767.22;5092224;28;20202;-47
2023/07/15 01:02:13;;;;;;;0.35;0.35;;;25.40;61.90;;;26.02;45.27;94764.00;5076496;28;20206;-47
2023/07/15 01:04:41;;;;;;;0.40;0.40;;;25.40;61.90;;;26.01;45.37;94765.09;5075590;28;20213;-47
2023/07/15 01:07:07;;;;;;;0.40;0.40;;;25.40;61.90;;;25.99;45.41;94765.41;5076331;28;20197;-45
2023/07/15 01:09:36;;;;;;;0.30;0.30;;;25.40;61.90;;;25.97;45.29;94764.88;5076379;28;20247;-45
2023/07/15 01:12:05;;;;;;;0.50;0.50;;;25.40;62.00;;;25.95;45.26;94761.72;5075088;28;20245;-45
2023/07/15 01:14:32;;;;;;;0.30;0.30;;;25.40;62.10;;;25.95;45.41;94775.16;5075908;28;20198;-45
2023/07/15 01:17:01;;;;;;;0.30;0.30;;;25.30;62.20;;;25.93;45.78;94769.25;5091922;28;20206;-45
2023/07/15 01:19:29;;;;;;;0.50;0.50;;;25.30;63.10;;;25.93;45.46;94769.25;5076140;28;20544;-45
2023/07/15 01:21:56;;;;;;;0.30;0.30;;;25.30;62.20;;;25.91;45.75;94762.59;5076146;28;20241;-45
2023/07/15 01:24:25;;;;;;;0.30;0.30;;;25.30;62.30;;;25.91;45.76;94767.97;5091470;28;20643;-45
2023/07/15 01:27:02;;;;;;;0.30;0.30;;;25.30;62.30;;;25.87;45.97;94763.16;5074743;28;20246;-45
2023/07/15 01:29:30;;;;;;;0.30;0.30;;;25.30;62.50;;;25.83;46.01;94762.16;5076054;28;20190;-44
2023/07/15 01:31:57;;;;;;;0.30;0.30;;;25.30;62.30;;;25.86;45.82;94768.84;5091607;28;20225;-45
2023/07/15 01:34:24;;;;;;;0.40;0.40;;;25.20;62.30;;;25.83;45.81;94770.22;5076140;28;20198;-46
2023/07/15 01:36:51;;;;;;;0.30;0.30;;;25.20;62.30;;;25.83;45.87;94769.41;5075489;28;20207;-45
2023/07/15 01:39:19;;;;;;;0.30;0.30;;;25.20;62.30;;;25.80;45.76;94764.63;5091422;28;20271;-45
2023/07/15 01:41:46;;;;;;;0.30;0.30;;;25.20;62.40;;;25.79;45.99;94771.88;5074703;28;20231;-45
2023/07/15 01:44:14;;;;;;;0.40;0.40;;;25.20;62.30;;;25.77;45.99;94765.22;5075368;28;20203;-45
2023/07/15 01:46:41;;;;;;;0.30;0.30;;;25.20;62.40;;;25.75;46.23;94768.19;5074728;28;20220;-45
2023/07/15 01:49:08;;;;;;;0.30;0.30;;;25.20;62.50;;;25.72;46.16;94769.56;5075366;28;20199;-45
2023/07/15 01:51:36;;;;;;;0.30;0.30;;;25.20;62.60;;;25.71;45.91;94780.63;5075339;28;20643;-45
2023/07/15 01:54:03;;;;;;;0.30;0.30;;;25.10;62.50;;;25.70;46.31;94769.06;5091062;28;20213;-45
2023/07/15 01:56:30;;;;;;;0.47;0.47;;;25.10;62.60;;;25.67;46.32;94780.41;5075719;28;20316;-45
2023/07/15 01:58:58;;;;;;;0.30;0.30;;;25.10;62.60;;;25.67;46.09;94776.91;5074262;28;20205;-45
2023/07/15 02:01:26;;;;;;;0.50;0.50;;;25.10;62.60;;;25.64;46.09;94777.50;5091159;28;20198;-45
2023/07/15 02:03:54;;;;;;;0.30;0.30;;;25.10;62.70;;;25.62;46.47;94774.28;5075183;28;20186;-45
2023/07/15 02:06:22;;;;;;;0.32;0.32;;;25.10;62.70;;;25.61;46.10;94776.19;5074213;28;20232;-49
2023/07/15 02:08:49;;;;;;;0.30;0.30;;;25.10;62.70;;;25.59;46.21;94773.00;5091063;28;20294;-45
2023/07/15 02:11:16;;;;;;;0.35;0.35;;;25.10;62.80;;;25.59;46.35;94773.00;5091188;28;20222;-49
2023/07/15 02:13:44;;;;;;;0.30;0.30;;;25.00;62.80;;;25.57;46.56;94775.97;5075034;28;20205;-45
2023/07/15 02:16:11;;;;;;;0.40;0.40;;;25.00;62.90;;;25.56;46.58;94774.38;5074011;28;20579;-45
2023/07/15 02:18:42;;;;;;;0.30;0.30;;;25.00;63.00;;;25.55;46.58;94775.47;5075341;28;20243;-46
2023/07/15 02:21:09;;;;;;;0.30;0.30;;;25.00;63.00;;;25.53;46.76;94766.09;5075126;28;20196;-45
2023/07/15 02:23:36;;;;;;;0.30;0.30;;;25.00;63.10;;;25.53;46.79;94769.56;5074833;28;20219;-45
2023/07/15 02:26:03;;;;;;;0.50;0.50;;;25.00;63.20;;;25.49;46.86;94771.25;5073935;28;20583;-45
2023/07/15 02:28:32;;;;;;;0.40;0.40;;;24.90;63.10;;;25.49;46.82;94770.47;5090834;28;20215;-46
2023/07/15 02:31:01;;;;;;;0.30;0.30;;;24.90;63.20;;;25.49;47.13;94776.63;5090615;28;20208;-46
2023/07/15 02:33:28;;;;;;;0.38;0.38;;;24.90;63.30;;;25.48;46.67;94771.53;5073759;28;20227;-49
2023/07/15 02:35:55;;;;;;;0.50;0.50;;;24.90;63.30;;;25.48;47.03;94774.22;5074397;28;20310;-49
2023/07/15 02:38:22;;;;;;;0.40;0.40;;;24.90;63.40;;;25.45;47.12;94772.94;5075402;28;20290;-45
2023/07/15 02:40:49;;;;;;;0.40;0.40;;;24.90;63.30;;;25.45;47.07;94780.16;5073819;28;20273;-46
2023/07/15 02:43:19;;;;;;;0.40;0.40;;;24.90;63.30;;;25.42;46.96;94776.97;5090301;28;20196;-45
2023/07/15 02:45:50;;;;;;;0.30;0.30;;;24.90;63.40;;;25.40;46.91;94779.16;5074714;28;20203;-46
2023/07/15 02:48:19;;;;;;;0.38;0.38;;;24.90;63.50;;;25.41;47.20;94779.94;5090793;28;20563;-48
2023/07/15 02:50:54;;;;;;;0.40;0.40;;;24.90;63.50;;;25.37;47.13;94778.91;5073763;28;20212;-45
2023/07/15 02:53:21;;;;;;;0.30;0.30;;;24.90;63.70;;;25.37;47.28;94779.72;5077722;28;20291;-50
2023/07/15 02:55:51;;;;;;;0.50;0.50;;;24.80;63.50;;;25.35;47.35;94789.94;5094841;28;20217;-49
2023/07/15 02:58:18;;;;;;;0.30;0.30;;;24.80;63.50;;;25.35;47.21;94781.88;5078916;28;20585;-49
2023/07/15 03:00:50;;;;;;;0.30;0.30;;;24.80;63.50;;;25.33;47.55;94780.56;5094571;28;20202;-48
2023/07/15 03:03:18;;;;;;;0.60;0.60;;;24.80;63.60;;;25.32;47.38;94787.81;5078549;28;20695;-49
2023/07/15 03:05:47;;;;;;;0.60;0.60;;;24.80;63.60;;;25.31;47.49;94786.22;5094184;28;20221;-47
2023/07/15 03:08:15;;;;;;;0.30;0.30;;;24.80;63.70;;;25.29;47.61;94791.06;5078440;28;20208;-48
2023/07/15 03:10:46;;;;;;;0.40;0.40;;;24.70;63.60;;;25.28;47.38;94794.06;5078795;28;20291;-48
2023/07/15 03:13:13;;;;;;;0.30;0.30;;;24.70;63.70;;;25.24;47.32;94793.81;5078532;28;20196;-45
2023/07/15 03:15:42;;;;;;;0.40;0.40;;;24.80;63.70;;;25.24;47.33;94788.47;5078304;28;20629;-46
2023/07/15 03:18:10;;;;;;;0.30;0.30;;;24.70;63.80;;;25.22;47.36;94796.81;5078561;28;20582;-45
2023/07/15 03:20:37;;;;;;;0.40;0.40;;;24.70;63.80;;;25.20;47.37;94798.97;5094175;28;20232;-46
2023/07/15 03:23:04;;;;;;;0.55;0.55;;;24.70;63.80;;;25.18;47.38;94778.88;5078441;28;20241;-45
2023/07/15 03:25:31;;;;;;;0.50;0.50;;;24.70;63.80;;;25.17;47.60;94791.50;5077912;28;20193;-45
2023/07/15 03:27:59;;;;;;;0.40;0.40;;;24.70;63.80;;;25.17;47.67;94799.56;5077960;28;20251;-45
2023/07/15 03:30:26;;;;;;;0.30;0.30;;;24.70;63.90;;;25.16;47.51;94789.91;5078253;28;20290;-45
2023/07/15 03:32:56;;;;;;;0.50;0.50;;;24.60;63.80;;;25.15;47.66;94793.66;5093913;28;20192;-45
2023/07/15 03:35:23;;;;;;;0.40;0.40;;;24.60;63.90;;;25.13;47.92;94787.78;5093711;28;20209;-45
2023/07/15 03:37:51;;;;;;;0.40;0.40;;;24.60;64.00;;;25.12;47.75;94794.25;5078134;28;20226;-45
2023/07/15 03:40:18;;;;;;;0.40;0.40;;;24.60;64.00;;;25.10;47.99;94797.22;5077818;28;20184;-45
2023/07/15 03:42:45;;;;;;;0.40;0.40;;;24.60;64.00;;;25.09;47.90;94800.19;5076839;28;20196;-45
2023/07/15 03:45:13;;;;;;;0.40;0.40;;;24.60;64.10;;;25.09;47.84;94794.81;5077612;28;20200;-45
2023/07/15 03:47:40;;;;;;;0.40;0.40;;;24.60;64.00;;;25.07;48.23;94796.97;5077710;28;20188;-45
2023/07/15 03:50:11;;;;;;;0.40;0.40;;;24.60;64.10;;;25.06;47.89;94796.19;5077917;28;20195;-47
2023/07/15 03:52:38;;;;;;;0.40;0.40;;;24.50;64.10;;;25.05;48.15;94794.59;5077752;28;20573;-48
2023/07/15 03:55:06;;;;;;;0.60;0.60;;;24.50;64.10;;;25.05;47.93;94796.50;5077587;28;20216;-47
2023/07/15 03:57:34;;;;;;;0.32;0.32;;;24.50;64.20;;;24.99;47.99;94786.91;5077487;28;20242;-47
2023/07/15 04:00:06;;;;;;;0.30;0.30;;;24.50;64.20;;;25.02;48.13;94799.72;5077208;28;20658;-45
2023/07/15 04:02:39;;;;;;;0.50;0.50;;;24.50;64.30;;;25.00;48.08;94797.34;5077819;28;20181;-45
2023/07/15 04:05:07;;;;;;;0.50;0.50;;;24.50;64.30;;;25.00;48.10;94805.41;5076480;28;20194;-46
2023/07/15 04:07:34;;;;;;;0.30;0.30;;;24.50;64.30;;;24.99;48.46;94803.00;5077370;28;20192;-48
2023/07/15 04:10:01;;;;;;;0.60;0.60;;;24.50;64.40;;;24.98;48.44;94804.88;5077553;28;20193;-45
2023/07/15 04:12:28;;;;;;;0.40;0.40;;;24.50;64.40;;;24.99;48.42;94801.09;5077275;28;20201;-45
2023/07/15 04:14:55;;;;;;;0.60;0.60;;;24.50;64.60;;;24.99;48.29;94805.69;5077299;28;20529;-45
2023/07/15 04:17:22;;;;;;;0.40;0.40;;;24.50;64.60;;;24.98;48.30;94804.88;5077689;28;20531;-45
2023/07/15 04:19:49;;;;;;;0.50;0.50;;;24.50;64.50;;;24.97;48.22;94813.22;5093067;28;20583;-47
2023/07/15 04:22:17;;;;;;;0.40;0.40;;;24.50;64.60;;;24.96;48.76;94806.25;5077377;28;20199;-46
2023/07/15 04:24:44;;;;;;;0.50;0.50;;;24.50;64.60;;;24.95;48.47;94808.16;5076988;28;20189;-45
2023/07/15 04:27:11;;;;;;;0.40;0.40;;;24.50;64.70;;;24.94;48.39;94806.53;5076942;28;20228;-46
2023/07/15 04:29:38;;;;;;;0.35;0.35;;;24.40;64.50;;;24.94;48.61;94812.69;5077192;28;20214;-45
2023/07/15 04:32:05;;;;;;;0.30;0.30;;;24.40;64.60;;;24.94;48.70;94819.94;5077224;28;20197;-45
2023/07/15 04:34:33;;;;;;;0.50;0.50;;;24.50;64.70;;;24.93;48.78;94821.03;5077110;28;20197;-45
2023/07/15 04:37:00;;;;;;;0.50;0.50;;;24.50;64.60;;;24.94;48.60;94817.28;5076703;28;20621;-45
2023/07/15 04:39:27;;;;;;;0.40;0.40;;;24.40;64.60;;;24.93;48.60;94816.44;5077613;28;20197;-45
2023/07/15 04:41:54;;;;;;;0.30;0.30;;;24.50;64.80;;;24.92;48.54;94824.78;5077084;28;20200;-47
2023/07/15 04:44:22;;;;;;;0.45;0.45;;;24.50;64.80;;;24.92;48.77;94814.84;5076481;28;20195;-50
2023/07/15 04:46:49;;;;;;;0.30;0.30;;;24.50;64.70;;;24.92;48.77;94822.13;5076589;28;20201;-47
2023/07/15 04:49:17;;;;;;;0.30;0.30;;;24.40;64.70;;;24.90;48.85;94826.97;5077042;28;20289;-49
2023/07/15 04:51:45;;;;;;;0.30;0.30;;;24.40;64.70;;;24.91;49.12;94833.94;5076539;28;20198;-49
2023/07/15 04:54:12;;;;;;;0.30;0.30;;;24.50;64.80;;;24.91;48.78;94833.94;5092224;28;20218;-47
2023/07/15 04:56:39;;;;;;;0.30;0.30;;;24.50;65.80;;;24.90;48.90;94835.81;5076622;28;20221;-45
2023/07/15 04:59:08;;;;;;;0.40;0.40;;;24.50;65.10;;;24.91;49.17;94841.97;5092323;28;20197;-47
2023/07/15 05:01:35;;;;;;;0.32;0.32;;;24.50;65.00;;;24.91;49.30;94840.09;5076328;28;20207;-47
2023/07/15 05:04:03;;;;;;;0.35;0.35;;;24.50;65.00;;;24.92;49.19;94838.22;5076388;28;20185;-46
2023/07/15 05:06:31;;;;;;;0.40;0.40;;;24.50;65.10;;;24.91;48.83;94850.03;5076119;28;20205;-45
2023/07/15 05:08:58;;;;;;;0.47;0.47;;;24.50;65.00;;;24.92;49.11;94848.94;5076172;28;20197;-43
2023/07/15 05:11:26;;;;;;;0.50;0.50;;;24.50;65.00;;;24.92;49.09;94848.94;5076423;28;20200;-42
2023/07/15 05:13:54;;;;;;;0.40;0.40;;;24.50;65.00;;;24.92;49.26;94852.41;5076745;28;20642;-49
2023/07/15 05:16:21;;;;;;;0.30;0.30;;;24.50;65.00;;;24.91;49.16;94850.84;5076075;28;20204;-44
2023/07/15 05:18:48;;;;;;;0.30;0.30;;;24.40;64.70;;;24.91;49.09;94858.06;5076269;28;20194;-47
2023/07/15 05:21:16;;;;;;;0.40;0.40;;;24.50;65.00;;;24.91;49.37;94858.88;5076203;28;20717;-44
2023/07/15 05:23:43;;;;;;;0.50;0.50;;;24.50;65.00;;;24.91;49.26;94861.56;5076151;28;20193;-45
2023/07/15 05:26:11;;;;;;;0.30;0.30;;;24.50;65.00;;;24.91;49.06;94864.25;5091735;28;20288;-45
2023/07/15 05:28:38;;;;;;;0.30;0.30;;;24.50;65.00;;;24.91;49.35;94860.75;5076111;28;20276;-45
2023/07/15 05:31:05;;;;;;;0.30;0.30;;;24.50;64.90;;;24.91;49.31;94861.56;5075738;28;20200;-40
2023/07/15 05:33:33;;;;;;;0.30;0.30;;;24.40;64.70;;;24.92;49.25;94873.09;5075947;28;20560;-43
2023/07/15 05:36:01;;;;;;;0.30;0.30;;;24.50;64.90;;;24.92;49.27;94870.41;5075395;28;20215;-45
2023/07/15 05:38:28;;;;;;;0.50;0.50;;;24.40;64.90;;;24.91;49.24;94874.97;5075607;28;20257;-42
2023/07/15 05:40:55;;;;;;;0.40;0.40;;;24.50;65.00;;;24.92;48.96;94867.72;5075977;28;20196;-45
2023/07/15 05:43:23;;;;;;;0.35;0.35;;;24.50;65.00;;;24.93;49.31;94870.13;5075576;28;20189;-47
2023/07/15 05:45:50;;;;;;;0.30;0.30;;;24.50;65.00;;;24.92;49.43;94868.50;5075470;28;20192;-40
2023/07/15 05:48:17;;;;;;;0.38;0.38;;;24.50;65.00;;;24.93;49.09;94872.78;5076020;28;20275;-43
2023/07/15 05:50:44;;;;;;;0.35;0.35;;;24.50;65.10;;;24.94;49.29;94882.44;5076487;28;20548;-47
2023/07/15 05:53:11;;;;;;;0.30;0.30;;;24.50;65.10;;;24.96;49.14;94881.38;5075680;28;20206;-43
2023/07/15 05:55:39;;;;;;;0.30;0.30;;;24.50;65.00;;;24.96;49.48;94884.84;5075348;28;20198;-48
2023/07/15 05:58:09;;;;;;;0.38;0.38;;;24.50;65.00;;;24.97;49.21;94880.28;5075837;28;20221;-41
2023/07/15 06:00:41;;;;;;;0.30;0.30;;;24.50;65.00;;;24.97;49.27;94877.59;5075569;28;20186;-42
2023/07/15 06:03:09;;;;;;;0.55;0.55;;;24.50;65.00;;;24.98;49.36;94874.63;5075927;28;20183;-41
2023/07/15 06:05:36;;;;;;;0.30;0.30;;;24.50;64.70;;;25.00;49.14;94868.97;5075455;28;20197;-41
2023/07/15 06:08:04;;;;;;;0.40;0.40;;;24.50;64.60;;;24.99;49.19;94876.25;5074327;28;20520;-46
2023/07/15 06:10:31;;;;;;;0.30;0.30;;;24.60;64.50;;;25.03;48.54;94881.84;5075519;28;20223;-43
2023/07/15 06:13:01;;;;;;;0.30;0.30;;;24.60;64.50;;;25.05;48.82;94887.72;5075188;28;20205;-45
2023/07/15 06:15:28;;;;;;;0.30;0.30;;;24.60;64.50;;;25.06;48.66;94883.94;5075407;28;20569;-42
2023/07/15 06:17:57;;;;;;;0.40;0.40;;;24.60;64.40;;;25.07;48.55;94888.22;5075384;28;20314;-42
2023/07/15 06:20:24;;;;;;;0.30;0.30;;;24.60;64.40;;;25.08;48.63;94881.78;5075545;28;20199;-43
2023/07/15 06:22:51;;;;;;;0.32;0.32;;;24.60;64.30;;;25.10;48.42;94893.81;5075077;28;20687;-42
2023/07/15 06:25:19;;;;;;;0.30;0.30;;;24.70;64.30;;;25.10;48.67;94888.47;5074848;28;20707;-42
2023/07/15 06:27:46;;;;;;;0.30;0.30;;;24.60;64.30;;;25.12;48.45;94890.88;5074389;28;20241;-43
2023/07/15 06:30:13;;;;;;;0.30;0.30;;;24.70;64.40;;;25.13;48.34;94881.72;5075085;28;20192;-46
2023/07/15 06:32:40;;;;;;;0.40;0.40;;;24.60;64.20;;;25.15;48.19;94882.25;5075455;28;20201;-48
2023/07/15 06:35:08;;;;;;;0.50;0.50;;;24.70;64.30;;;25.18;48.45;94880.88;5074768;28;20193;-45
2023/07/15 06:37:36;;;;;;;0.30;0.30;;;24.70;64.30;;;25.19;48.30;94885.16;5075335;28;20227;-45
2023/07/15 06:40:04;;;;;;;0.30;0.30;;;24.70;64.30;;;25.20;48.39;94887.53;5074844;28;20204;-46
2023/07/15 06:42:31;;;;;;;0.30;0.30;;;24.70;64.20;;;25.21;48.19;94875.72;5074908;28;20200;-45
2023/07/15 06:44:58;;;;;;;0.30;0.30;;;24.70;64.20;;;25.23;48.37;94881.63;5074905;28;20228;-40
2023/07/15 06:47:25;;;;;;;0.50;0.50;;;24.70;64.20;;;25.25;48.56;94882.16;5074831;28;20197;-42
2023/07/15 06:49:52;;;;;;;0.50;0.50;;;24.80;64.20;;;25.25;48.06;94874.09;5074924;28;20535;-45
2023/07/15 06:52:19;;;;;;;0.30;0.30;;;24.80;64.20;;;25.28;48.38;94874.59;5075023;28;20219;-44
2023/07/15 06:54:47;;;;;;;0.32;0.32;;;24.80;64.30;;;25.31;48.10;94879.41;5074697;28;20661;-45
2023/07/15 06:57:14;;;;;;;0.28;0.28;;;24.80;64.20;;;25.32;48.33;94883.69;5090236;28;20206;-43
2023/07/15 06:59:41;;;;;;;0.40;0.40;;;24.80;64.20;;;25.34;48.31;94874.25;5074840;28;20197;-40
2023/07/15 07:02:08;;;;;;;0.40;0.40;;;24.90;64.20;;;25.35;48.21;94880.41;5075223;28;20277;-42
2023/07/15 07:04:35;;;;;;;0.30;0.30;;;24.90;64.20;;;25.37;48.34;94879.06;5074899;28;20224;-45
2023/07/15 07:07:03;;;;;;;0.30;0.30;;;24.90;64.20;;;25.39;48.05;94873.44;5073613;28;20305;-42
2023/07/15 07:09:30;;;;;;;0.30;0.30;;;24.90;64.20;;;25.41;48.14;94879.28;5074626;28;20589;-42
2023/07/15 07:11:58;;;;;;;0.40;0.40;;;24.90;64.20;;;25.43;47.86;94874.44;5075412;28;20219;-45
2023/07/15 07:14:25;;;;;;;0.30;0.30;;;24.90;64.20;;;25.45;48.23;94869.59;5074507;28;20521;-40
2023/07/15 07:16:52;;;;;;;0.30;0.30;;;24.90;64.10;;;25.47;48.30;94869.31;5074340;28;20217;-44
2023/07/15 07:19:19;;;;;;;0.30;0.30;;;25.00;64.10;;;25.49;48.20;94869.81;5074917;28;20201;-41
2023/07/15 07:21:46;;;;;;;0.30;0.30;;;25.00;64.10;;;25.52;48.07;94878.09;5075226;28;20202;-41
2023/07/15 07:24:15;;;;;;;0.30;0.30;;;25.00;64.00;;;25.54;48.23;94877.81;5074859;28;20199;-48
2023/07/15 07:26:42;;;;;;;0.35;0.35;;;25.00;64.00;;;25.55;47.90;94877.50;5074083;28;20368;-45
2023/07/15 07:29:09;;;;;;;0.30;0.30;;;25.00;64.00;;;25.58;48.24;94870.75;5074675;28;20188;-45
2023/07/15 07:31:36;;;;;;;0.40;0.40;;;25.10;64.00;;;25.62;47.67;94879.03;5074616;28;20202;-45
2023/07/15 07:34:03;;;;;;;0.35;0.35;;;25.10;63.90;;;25.65;47.78;94879.25;5074588;28;20233;-44
2023/07/15 07:36:32;;;;;;;0.30;0.30;;;25.10;63.80;;;25.68;48.04;94877.88;5074214;28;20564;-45
2023/07/15 07:38:59;;;;;;;0.40;0.40;;;25.20;63.80;;;25.69;47.73;94880.28;5075107;28;20199;-45
2023/07/15 07:41:26;;;;;;;0.40;0.40;;;25.20;63.80;;;25.73;47.96;94877.81;5077887;28;20205;-45
2023/07/15 07:43:53;;;;;;;0.30;0.30;;;25.20;63.70;;;25.76;47.77;94879.16;5077830;28;20195;-48
2023/07/15 07:46:20;;;;;;;0.40;0.40;;;25.20;63.60;;;25.78;47.71;94880.47;5077630;28;20218;-45
2023/07/15 07:48:47;;;;;;;0.30;0.30;;;25.30;63.60;;;25.81;47.09;94873.69;5076796;28;20198;-46
2023/07/15 07:51:14;;;;;;;0.40;0.40;;;25.30;63.60;;;25.84;47.53;94867.72;5077773;28;20680;-46
2023/07/15 07:53:42;;;;;;;0.40;0.40;;;25.30;63.70;;;25.86;47.43;94871.72;5077635;28;20202;-45
2023/07/15 07:56:11;;;;;;;0.30;0.30;;;25.30;63.40;;;25.89;47.09;94863.09;5093307;28;20195;-45
2023/07/15 07:58:41;;;;;;;0.30;0.30;;;25.40;63.50;;;25.92;47.29;94866.31;5077546;28;20215;-48
2023/07/15 08:01:08;;;;;;;0.40;0.40;;;25.40;63.30;;;25.97;47.11;94871.59;5076835;28;20233;-45
2023/07/15 08:03:35;;;;;;;0.30;0.30;;;25.40;63.30;;;25.99;47.15;94864.84;5077596;28;20191;-50
2023/07/15 08:06:04;;;;;;;0.32;0.32;;;25.40;63.20;;;26.02;47.01;94875.03;5093380;28;20196;-47
2023/07/15 08:08:31;;;;;;;0.30;0.30;;;25.50;63.20;;;26.04;46.73;94872.81;5077386;28;20236;-45
2023/07/15 08:10:58;;;;;;;0.40;0.40;;;25.50;63.20;;;26.07;47.03;94868.78;5078378;28;20282;-45
2023/07/15 08:13:25;;;;;;;0.30;0.30;;;25.60;63.10;;;26.09;46.90;94873.88;5077488;28;20593;-46
2023/07/15 08:15:52;;;;;;;0.30;0.30;;;25.60;63.10;;;26.12;46.90;94866.03;5077032;28;20734;-47
2023/07/15 08:18:20;;;;;;;0.40;0.40;;;25.60;63.00;;;26.14;47.11;94868.44;5077200;28;20219;-44
2023/07/15 08:20:47;;;;;;;0.30;0.30;;;25.60;63.00;;;26.19;46.52;94868.34;5077401;28;20501;-44
2023/07/15 08:23:15;;;;;;;0.30;0.30;;;25.70;62.90;;;26.21;46.37;94863.47;5077532;28;20193;-40
2023/07/15 08:25:42;;;;;;;0.40;0.40;;;25.70;62.90;;;26.25;46.66;94861.78;5076995;28;20663;-44
2023/07/15 08:28:09;;;;;;;0.30;0.30;;;25.70;62.90;;;26.28;46.27;94863.91;5076926;28;20584;-44
2023/07/15 08:30:36;;;;;;;0.30;0.30;;;25.80;62.80;;;26.33;46.71;94866.50;5077502;28;20224;-44
2023/07/15 08:33:05;;;;;;;0.40;0.40;;;25.80;62.80;;;26.35;46.67;94856.28;5077462;28;20277;-44
2023/07/15 08:35:34;;;;;;;0.40;0.40;;;25.80;62.70;;;26.39;46.41;94856.50;5076783;28;20235;-44
2023/07/15 08:38:02;;;;;;;0.30;0.30;;;25.80;62.70;;;26.42;46.33;94860.47;5077020;28;20297;-44
2023/07/15 08:40:30;;;;;;;0.30;0.30;;;25.90;62.70;;;26.46;46.08;94856.88;5076779;28;20507;-44
2023/07/15 08:42:58;;;;;;;0.30;0.30;;;25.90;62.50;;;26.47;46.03;94855.78;5092920;28;20192;-44
2023/07/15 08:45:26;;;;;;;0.40;0.40;;;26.00;62.50;;;26.50;45.83;94855.22;5076967;28;20288;-43
2023/07/15 08:47:53;;;;;;;0.40;0.40;;;26.00;62.50;;;26.55;45.64;94858.91;5076465;28;20277;-48
2023/07/15 08:50:21;;;;;;;0.30;0.30;;;26.00;62.30;;;26.58;45.94;94850.25;5076385;28;20195;-45
2023/07/15 08:52:48;;;;;;;0.30;0.30;;;26.00;62.20;;;26.60;45.55;94856.94;5092665;28;20590;-45
2023/07/15 08:55:17;;;;;;;0.30;0.30;;;26.10;62.20;;;26.65;45.50;94862.22;5076718;28;20188;-45
2023/07/15 08:57:44;;;;;;;0.40;0.40;;;26.10;62.00;;;26.67;45.25;94856.53;5076177;28;20209;-45
2023/07/15 09:00:12;;;;;;;0.30;0.30;;;26.10;62.00;;;26.71;45.29;94857.56;5076399;28;20275;-45
2023/07/15 09:02:39;;;;;;;0.30;0.30;;;26.20;62.00;;;26.74;45.37;94854.25;5076530;28;20189;-45
2023/07/15 09:05:08;;;;;;;0.30;0.30;;;26.20;61.90;;;26.77;44.95;94852.91;5076279;28;20322;-45
2023/07/15 09:07:56;;;;;;;0.30;0.30;;;26.20;61.70;;;26.79;44.74;94853.41;5091811;28;20205;-45
2023/07/15 09:10:28;;;;;;;0.30;0.30;;;26.20;61.50;;;26.81;44.47;94857.41;5076731;28;20539;-45
2023/07/15 09:12:56;;;;;;;0.25;0.25;;;26.30;61.50;;;26.84;44.65;94850.63;5076211;28;20275;-46
2023/07/15 09:15:23;;;;;;;0.40;0.40;;;26.30;61.40;;;26.89;44.32;94849.75;5075832;28;20198;-43
2023/07/15 09:17:56;;;;;;;0.35;0.35;;;26.30;61.30;;;26.93;44.51;94850.75;5075775;28;20244;-41
2023/07/15 09:20:26;;;;;;;0.30;0.30;;;26.40;61.30;;;26.96;44.11;94850.94;5076160;28;20217;-41
2023/07/15 09:22:59;;;;;;;0.30;0.30;;;26.40;61.20;;;27.00;44.23;94845.75;5075886;28;20605;-41
2023/07/15 09:25:27;;;;;;;0.40;0.40;;;26.40;60.80;;;27.05;44.10;94832.22;5076451;28;20250;-41
2023/07/15 09:27:55;;;;;;;0.30;0.30;;;26.50;60.70;;;27.09;43.70;94838.59;5091419;28;20251;-41
2023/07/15 09:30:22;;;;;;;0.30;0.30;;;26.50;60.50;;;27.12;43.82;94840.69;5076235;28;20692;-44
2023/07/15 09:32:50;;;;;;;0.30;0.30;;;26.50;60.60;;;27.17;44.16;94843.28;5075770;28;20540;-41
2023/07/15 09:35:20;;;;;;;0.30;0.30;;;26.60;60.60;;;27.21;43.73;94843.47;5074851;28;20197;-42
2023/07/15 09:37:51;;;;;;;0.40;0.40;;;26.60;60.60;;;27.26;43.33;94840.69;5075722;28;20209;-42
2023/07/15 09:40:18;;;;;;;0.40;0.40;;;26.60;60.50;;;27.31;43.51;94839.78;5075941;28;20176;-41
2023/07/15 09:42:56;;;;;;;0.30;0.30;;;26.70;60.50;;;27.35;42.95;94831.91;5075740;28;20196;-42
2023/07/15 09:45:36;;;;;;;0.30;0.30;;;26.70;59.60;;;27.38;42.73;94834.81;5075834;28;20257;-41
2023/07/15 09:48:09;;;;;;;0.30;0.30;;;26.80;59.30;;;27.41;42.16;94828.81;5075134;28;20208;-41
2023/07/15 09:50:39;;;;;;;0.30;0.30;;;26.80;59.00;;;27.45;42.32;94829.03;5075966;28;20194;-43
2023/07/15 09:53:07;;;;;;;0.30;0.30;;;26.80;59.00;;;27.48;42.40;94833.81;5075376;28;20195;-41
2023/07/15 09:55:36;;;;;;;0.30;0.30;;;26.90;58.90;;;27.53;41.81;94825.63;5077397;28;20191;-41
2023/07/15 09:58:22;;;;;;;0.30;0.30;;;26.90;58.70;;;27.55;41.65;94833.41;5083109;28;20303;-41
2023/07/15 10:00:56;;;;;;;0.38;0.38;;;27.00;58.40;;;27.58;41.60;94830.13;5074869;28;20182;-44
2023/07/15 10:03:29;;;;;;;0.30;0.30;;;27.00;58.30;;;27.61;41.39;94821.41;5074398;28;20187;-47
2023/07/15 10:05:56;;;;;;;0.30;0.30;;;27.00;58.20;;;27.66;41.25;94815.94;5075855;28;20211;-41
2023/07/15 10:08:25;;;;;;;0.40;0.40;;;27.00;58.00;;;27.69;41.26;94822.63;5074687;28;20667;-41
2023/07/15 10:10:52;;;;;;;0.30;0.30;;;27.10;58.00;;;27.72;41.27;94814.72;5073608;28;20197;-40
2023/07/15 10:13:20;;;;;;;0.35;0.35;;;27.10;58.00;;;27.76;40.78;94812.22;5078079;28;20202;-44
2023/07/15 10:15:47;;;;;;;0.30;0.30;;;27.10;57.80;;;27.80;40.70;94815.88;5094982;28;20275;-44
2023/07/15 10:18:22;;;;;;;0.30;0.30;;;27.10;57.80;;;27.86;40.65;94811.19;5094185;28;20300;-44
2023/07/15 10:21:03;;;;;;;0.30;0.30;;;27.20;57.50;;;27.89;40.90;94805.16;5095283;28;20619;-44
2023/07/15 10:23:32;;;;;;;0.30;0.30;;;27.20;57.30;;;27.93;40.38;94806.97;5080828;28;20192;-44
2023/07/15 10:26:05;;;;;;;0.40;0.40;;;27.30;57.50;;;27.99;40.37;94806.84;5075226;28;20215;-42